createdAt,value
2019-03-28T00:04:48.942Z,24.50
2019-03-28T00:14:56.560Z,23.03
2019-03-28T00:25:08.594Z,23.83
2019-03-28T00:35:15.061Z,26.37
2019-03-28T00:45:20.554Z,25.23
2019-03-28T00:55:28.778Z,25.40
2019-03-28T01:05:36.485Z,22.73
2019-03-28T01:15:42.586Z,28.60
2019-03-28T01:25:51.692Z,24.77
2019-03-28T01:36:04.242Z,27.47
2019-03-28T01:46:09.850Z,29.47
2019-03-28T01:56:15.612Z,27.60
2019-03-28T02:06:23.281Z,30.67
2019-03-28T02:16:31.316Z,28.07
2019-03-28T02:26:38.006Z,28.73
2019-03-28T02:36:44.113Z,28.53
2019-03-28T02:46:54.737Z,30.97
2019-03-28T02:57:03.643Z,34.73
2019-03-28T03:07:12.780Z,33.23
2019-03-28T03:17:18.538Z,34.20
2019-03-28T03:27:24.588Z,34.07
2019-03-28T03:37:33.338Z,30.47
2019-03-28T03:47:39.667Z,33.53
2019-03-28T03:57:48.494Z,34.83
2019-03-28T04:07:55.550Z,32.10
2019-03-28T04:18:06.206Z,32.63
2019-03-28T04:28:12.635Z,29.40
2019-03-28T04:38:24.552Z,32.83
2019-03-28T04:48:30.244Z,32.77
2019-03-28T04:58:44.234Z,29.93
2019-03-28T05:08:53.223Z,28.00
2019-03-28T05:19:03.166Z,28.90
2019-03-28T05:29:12.162Z,29.30
2019-03-28T05:39:22.927Z,31.23
2019-03-28T05:49:30.681Z,28.33
2019-03-28T05:59:38.903Z,32.43
2019-03-28T06:09:48.317Z,25.63
2019-03-28T06:19:55.631Z,24.93
2019-03-28T06:30:05.910Z,24.30
2019-03-28T06:40:12.290Z,18.10
2019-03-28T06:50:19.240Z,20.03
2019-03-28T07:00:28.795Z,19.13
2019-03-28T07:10:35.300Z,16.47
2019-03-28T07:20:40.426Z,19.97
2019-03-28T07:30:46.969Z,30.63
2019-03-28T07:40:54.134Z,34.83
2019-03-28T07:50:59.792Z,32.10
2019-03-28T08:01:07.272Z,39.80
2019-03-28T08:11:13.607Z,30.90
2019-03-28T08:21:19.594Z,25.37
2019-03-28T08:31:28.213Z,19.20
2019-03-28T08:41:42.878Z,16.67
2019-03-28T08:51:54.203Z,16.17
2019-03-28T09:02:12.222Z,15.57
2019-03-28T09:12:35.404Z,13.90
2019-03-28T09:22:43.311Z,16.37
2019-03-28T09:32:50.347Z,16.37
2019-03-28T09:42:55.642Z,10.23
2019-03-28T09:53:06.939Z,7.63
2019-03-28T10:03:12.988Z,13.83
2019-03-28T10:13:19.391Z,13.87
2019-03-28T10:23:27.603Z,17.57
2019-03-28T10:33:39.096Z,15.53
2019-03-28T10:43:47.697Z,14.53
2019-03-28T10:53:53.904Z,13.77
2019-03-28T11:03:58.967Z,17.33
2019-03-28T11:14:16.530Z,13.17
2019-03-28T11:24:21.891Z,21.37
2019-03-28T11:34:26.957Z,13.73
2019-03-28T11:44:33.718Z,16.03
2019-03-28T11:54:45.822Z,16.67
2019-03-28T12:04:57.217Z,13.30
2019-03-28T12:15:03.605Z,13.07
2019-03-28T12:25:10.882Z,13.77
2019-03-28T12:35:17.029Z,10.93
2019-03-28T12:45:24.629Z,11.67
2019-03-28T12:55:30.643Z,11.37
2019-03-28T13:05:36.545Z,9.93
2019-03-28T13:15:45.368Z,10.10
2019-03-28T13:25:56.839Z,10.43
2019-03-28T13:36:04.685Z,5.73
2019-03-28T13:46:12.426Z,7.03
2019-03-28T13:56:18.409Z,4.47
2019-03-28T14:06:26.768Z,5.60
2019-03-28T14:16:35.023Z,4.10
2019-03-28T14:27:01.616Z,4.40
2019-03-28T14:37:09.824Z,7.27
2019-03-28T14:47:16.918Z,5.00
2019-03-28T14:57:22.688Z,5.60
2019-03-28T15:07:30.275Z,5.07
2019-03-28T15:17:36.079Z,6.80
2019-03-28T15:27:45.954Z,4.50
2019-03-28T15:37:55.871Z,9.13
2019-03-28T15:48:03.355Z,6.00
2019-03-28T15:58:22.454Z,5.90
2019-03-28T16:08:39.412Z,7.03
2019-03-28T16:18:46.281Z,7.33
2019-03-28T16:28:56.374Z,10.77
2019-03-28T16:39:02.000Z,10.53
2019-03-28T16:49:10.395Z,11.90
2019-03-28T16:59:17.847Z,9.70
2019-03-28T17:09:24.373Z,12.00
2019-03-28T17:19:29.941Z,12.57
2019-03-28T17:29:34.917Z,14.40
2019-03-28T17:39:39.940Z,11.73
2019-03-28T17:49:45.022Z,14.17
2019-03-28T17:59:49.981Z,13.40
2019-03-28T18:09:55.063Z,12.87
2019-03-28T18:20:00.368Z,14.07
2019-03-28T18:30:05.934Z,19.57
2019-03-28T18:40:11.012Z,21.97
2019-03-28T18:50:16.030Z,19.40
2019-03-28T19:00:21.039Z,21.80
2019-03-28T19:10:26.057Z,22.07
2019-03-28T19:20:33.212Z,32.07
2019-03-28T19:30:38.651Z,23.47
2019-03-28T19:40:43.765Z,17.73
2019-03-28T19:50:49.708Z,18.07
2019-03-28T20:00:54.726Z,19.13
2019-03-28T20:10:59.649Z,23.93
2019-03-28T20:21:05.508Z,22.03
2019-03-28T20:31:10.536Z,22.23
2019-03-28T20:41:16.947Z,23.03
2019-03-28T20:51:24.483Z,20.77
2019-03-28T21:01:28.630Z,27.47
2019-03-28T21:11:33.602Z,28.10
2019-03-28T21:21:38.518Z,26.33
2019-03-28T21:31:49.737Z,25.00
2019-03-28T21:41:50.172Z,27.97
2019-03-28T21:51:56.747Z,31.07
2019-03-28T22:02:01.874Z,27.40
2019-03-28T22:12:06.826Z,27.80
2019-03-28T22:22:11.767Z,28.80
2019-03-28T22:32:16.897Z,26.77
2019-03-28T22:42:21.782Z,28.37
2019-03-28T22:52:26.779Z,27.37
2019-03-28T23:02:31.933Z,26.17
2019-03-28T23:12:36.959Z,27.97
2019-03-28T23:22:41.889Z,27.23
2019-03-28T23:32:46.789Z,23.87
2019-03-28T23:42:51.881Z,27.20
2019-03-28T23:52:56.849Z,26.60
